x

Ilm3 - 27 Miles Se Of Wrightsville Beach, Nc (41037) Weather Station

8:08 - Wed 28th Sep 2016 All times are EDT. -4 hours from GMT.

  • Wind
  • Sea Temp 81°f
  • Luft Temp 80°f
  • Sea Pressure 1014.3mb
  • Ilm3 - 27 Miles Se Of Wrightsville Beach, Nc
  • Ilm3 - 27 Miles Se Of Wrightsville Beach, Nc

More Historic Weather Station data

Upgrade to MSW Pro to gain access to the past 30 days of data for over 8000 Wavebouys and Weather Stations around the globe.

Join Pro

Comparision Forecast

View Surf forecast
   
Mi 09/28 8:08  -  2 mph 1014.3mb 81f 80f
7:08 2 7 mph 1014.1mb 81f 79f
6:08 2 4 mph 1013.6mb 81f 79f
5:08 2 4 mph 1013.2mb 81f 79f
4:08 2 7 mph 1013.2mb 81f 79f
3:08 2 4 mph 1013.2mb 81f 79f
2:08 2 7 mph 1013.2mb 81f 79f
1:08 2 4 mph 1013.2mb 81f 79f
12:08 4 7 mph 1012.9mb 81f 79f
Di 09/27 11:08 7 9 mph 1012.8mb 81f 79f
10:08 7 13 mph 1012.5mb 81f 79f
9:08 9 11 mph 1012.8mb 81f 79f
8:08 9 13 mph 1012.4mb 81f 79f
7:08 7 11 mph 1012.1mb 81f 79f
6:08 9 11 mph 1011.2mb 82f 80f
5:08 9 13 mph 1011.7mb 82f 80f
4:08 7 11 mph 1011.9mb 82f 80f
3:08 7 11 mph 1012.3mb 82f 80f
2:08 7 11 mph 1012.6mb 82f 80f
1:08 7 11 mph 1013.2mb 81f 80f
12:08 7 11 mph 1014.1mb 81f 80f
11:08 4 9 mph 1015mb 81f 80f
10:08 7 11 mph 1014.3mb 81f 79f
9:08 11 16 mph 1014.1mb 81f 78f
8:08 4 7 mph 1014.4mb 81f 80f
7:08 2 7 mph 1014.5mb 81f 80f
6:08 7 11 mph 1014.1mb 81f 79f
5:08 7 11 mph 1014.3mb 81f 79f
4:08 9 13 mph 1014.3mb 81f 80f
3:08 9 13 mph 1015.1mb 81f 80f
2:08 13 18 mph 1016.3mb 81f 80f
1:08 11 18 mph 1016.4mb 81f 80f
12:08 11 16 mph 1016.7mb 81f 80f
Mo 09/26 11:08 13 18 mph 1016.9mb 81f 80f
10:08 13 18 mph 1017.6mb 81f 80f
9:08 13 18 mph 1017.9mb 82f 80f
8:08 11 16 mph 1017.3mb 82f 80f
7:08 11 18 mph 1017.1mb 82f 80f
6:08 11 18 mph 1016.8mb 82f 80f
5:08 13 18 mph 1016.9mb 82f 79f
4:08 13 20 mph 1017.3mb 82f 79f
3:08 16 20 mph 1017.9mb 82f 79f
2:08 16 20 mph 1018.4mb 82f 79f
1:08 16 20 mph 1019.1mb 82f 79f
12:08 18 22 mph 1019.4mb 81f 78f
11:08 16 22 mph 1019.8mb 81f 78f
10:08 16 22 mph 1019.5mb 81f 78f
9:08 18 22 mph 1019.1mb 81f 78f
8:08 18 25 mph 1018.7mb 81f 77f
7:08 18 22 mph 1018.4mb 81f 77f
6:08 16 22 mph 1018.3mb 81f 78f
5:08 13 20 mph 1018.4mb 81f 78f
4:08 13 16 mph 1018.6mb 81f 79f
3:08 16 20 mph 1018.8mb 81f 78f
2:08 13 20 mph 1019.2mb 81f 78f
1:08 18 22 mph 1019mb 81f 78f
12:08 18 25 mph 1019.2mb 81f 78f
So 09/25 11:08 20 27 mph 1019.4mb 81f 77f
10:08 20 29 mph 1019.6mb 81f 77f
9:08 18 27 mph 1019.9mb 81f 77f
8:08 18 25 mph 1019.4mb 82f 77f
7:08 20 27 mph 1018.5mb 82f 78f
6:08 20 27 mph 1018.3mb 82f 78f
5:08 20 27 mph 1018mb 82f 78f
4:08 18 25 mph 1018.3mb 82f 78f
3:08 16 22 mph 1018.3mb 82f 78f
2:08 18 22 mph 1018.9mb 82f 79f
1:08 16 20 mph 1019.2mb 82f 79f
12:08 13 20 mph 1019.6mb 82f 80f
11:08 16 20 mph 1019.9mb 81f 79f
10:08 16 22 mph 1019.5mb 81f 79f
9:08 16 20 mph 1019.3mb 81f 80f
8:08 16 20 mph 1018.8mb 81f 80f
7:08 16 20 mph 1018.3mb 81f 79f
6:08 16 20 mph 1017.8mb 82f 79f
5:08 16 20 mph 1017.3mb 82f 80f
4:08 13 18 mph 1016.9mb 82f 80f
3:08 9 13 mph 1017mb 82f 82f
2:08 9 11 mph 1017.1mb 82f 81f
1:08 9 11 mph 1017.2mb 82f 82f
12:08 7 9 mph 1017.3mb 82f 82f
Sa 09/24 11:08 7 9 mph 1017.5mb 82f 81f
10:08 7 9 mph 1017.5mb 82f 81f
9:08 9 11 mph 1017.3mb 82f 80f
8:08 11 13 mph 1016.6mb 82f 80f
7:08 7 11 mph 1016.4mb 82f 80f
6:08 7 9 mph 1016.3mb 82f 81f
5:08 7 9 mph 1016.2mb 82f 81f
4:08 7 9 mph 1016.3mb 82f 81f
3:08 7 11 mph 1016.3mb 82f 80f
2:08 7 11 mph 1016.6mb 82f 79f